sensor_id;sensor_type;location;lat;lon;timestamp;P1;durP1;ratioP1;P2;durP2;ratioP2
25637;SDS011;13496;51.040;13.680;2023-05-16T00:03:04;3.28;;;3.05;;
25637;SDS011;13496;51.040;13.680;2023-05-16T00:08:06;5.60;;;3.20;;
25637;SDS011;13496;51.040;13.680;2023-05-16T00:13:08;3.00;;;2.80;;
25637;SDS011;13496;51.040;13.680;2023-05-16T00:18:10;3.17;;;2.88;;
25637;SDS011;13496;51.040;13.680;2023-05-16T00:23:15;3.88;;;3.47;;
25637;SDS011;13496;51.040;13.680;2023-05-16T00:28:17;3.20;;;3.00;;
25637;SDS011;13496;51.040;13.680;2023-05-16T00:33:19;3.75;;;2.97;;
25637;SDS011;13496;51.040;13.680;2023-05-16T00:38:21;3.30;;;3.00;;
25637;SDS011;13496;51.040;13.680;2023-05-16T00:43:22;3.03;;;2.83;;
25637;SDS011;13496;51.040;13.680;2023-05-16T00:48:25;3.17;;;2.83;;
25637;SDS011;13496;51.040;13.680;2023-05-16T00:53:27;3.40;;;3.13;;
25637;SDS011;13496;51.040;13.680;2023-05-16T00:58:29;3.25;;;2.95;;
25637;SDS011;13496;51.040;13.680;2023-05-16T01:03:32;2.85;;;2.65;;
25637;SDS011;13496;51.040;13.680;2023-05-16T01:08:34;3.17;;;2.95;;
25637;SDS011;13496;51.040;13.680;2023-05-16T01:19:12;3.80;;;2.85;;
25637;SDS011;13496;51.040;13.680;2023-05-16T01:24:22;3.08;;;2.88;;
25637;SDS011;13496;51.040;13.680;2023-05-16T01:29:33;3.53;;;3.22;;
25637;SDS011;13496;51.040;13.680;2023-05-16T01:34:35;3.50;;;3.20;;
25637;SDS011;13496;51.040;13.680;2023-05-16T01:39:40;3.08;;;2.78;;
25637;SDS011;13496;51.040;13.680;2023-05-16T01:50:39;3.22;;;2.92;;
25637;SDS011;13496;51.040;13.680;2023-05-16T01:55:51;3.05;;;2.75;;
25637;SDS011;13496;51.040;13.680;2023-05-16T02:00:53;3.03;;;2.72;;
25637;SDS011;13496;51.040;13.680;2023-05-16T02:06:01;2.97;;;2.78;;
25637;SDS011;13496;51.040;13.680;2023-05-16T02:11:03;3.28;;;2.97;;
25637;SDS011;13496;51.040;13.680;2023-05-16T02:16:05;3.20;;;2.90;;
25637;SDS011;13496;51.040;13.680;2023-05-16T02:21:06;3.15;;;2.90;;
25637;SDS011;13496;51.040;13.680;2023-05-16T02:26:11;3.15;;;2.85;;
25637;SDS011;13496;51.040;13.680;2023-05-16T02:31:12;3.35;;;3.05;;
25637;SDS011;13496;51.040;13.680;2023-05-16T02:36:14;3.00;;;2.80;;
25637;SDS011;13496;51.040;13.680;2023-05-16T02:41:17;3.25;;;3.03;;
25637;SDS011;13496;51.040;13.680;2023-05-16T02:46:24;3.15;;;2.85;;
25637;SDS011;13496;51.040;13.680;2023-05-16T02:51:28;2.80;;;2.60;;
25637;SDS011;13496;51.040;13.680;2023-05-16T02:56:29;3.03;;;2.83;;
25637;SDS011;13496;51.040;13.680;2023-05-16T03:01:31;2.88;;;2.67;;
25637;SDS011;13496;51.040;13.680;2023-05-16T03:06:33;2.85;;;2.65;;
25637;SDS011;13496;51.040;13.680;2023-05-16T03:11:35;3.05;;;2.85;;
25637;SDS011;13496;51.040;13.680;2023-05-16T03:16:37;2.88;;;2.67;;
25637;SDS011;13496;51.040;13.680;2023-05-16T03:21:39;2.80;;;2.60;;
25637;SDS011;13496;51.040;13.680;2023-05-16T03:26:41;2.97;;;2.78;;
25637;SDS011;13496;51.040;13.680;2023-05-16T03:31:42;2.88;;;2.67;;
25637;SDS011;13496;51.040;13.680;2023-05-16T03:36:44;2.88;;;2.67;;
25637;SDS011;13496;51.040;13.680;2023-05-16T03:41:46;2.80;;;2.60;;
25637;SDS011;13496;51.040;13.680;2023-05-16T03:46:48;2.85;;;2.65;;
25637;SDS011;13496;51.040;13.680;2023-05-16T03:51:51;2.88;;;2.67;;
25637;SDS011;13496;51.040;13.680;2023-05-16T03:56:53;3.20;;;2.67;;
25637;SDS011;13496;51.040;13.680;2023-05-16T04:01:55;2.88;;;2.67;;
25637;SDS011;13496;51.040;13.680;2023-05-16T04:06:56;3.05;;;2.75;;
25637;SDS011;13496;51.040;13.680;2023-05-16T04:11:58;3.03;;;2.78;;
25637;SDS011;13496;51.040;13.680;2023-05-16T04:17:02;3.13;;;2.90;;
25637;SDS011;13496;51.040;13.680;2023-05-16T04:22:04;2.97;;;2.78;;
25637;SDS011;13496;51.040;13.680;2023-05-16T04:27:06;3.05;;;2.85;;
25637;SDS011;13496;51.040;13.680;2023-05-16T04:32:10;3.08;;;2.88;;
25637;SDS011;13496;51.040;13.680;2023-05-16T04:37:12;3.22;;;3.03;;
25637;SDS011;13496;51.040;13.680;2023-05-16T04:42:14;3.40;;;3.10;;
25637;SDS011;13496;51.040;13.680;2023-05-16T04:47:16;3.08;;;2.80;;
25637;SDS011;13496;51.040;13.680;2023-05-16T04:52:18;4.03;;;3.30;;
25637;SDS011;13496;51.040;13.680;2023-05-16T04:57:20;3.80;;;3.50;;
25637;SDS011;13496;51.040;13.680;2023-05-16T05:02:21;3.42;;;3.13;;
25637;SDS011;13496;51.040;13.680;2023-05-16T05:07:23;4.22;;;2.83;;
25637;SDS011;13496;51.040;13.680;2023-05-16T05:12:28;4.00;;;3.55;;
25637;SDS011;13496;51.040;13.680;2023-05-16T05:17:30;3.65;;;3.33;;
25637;SDS011;13496;51.040;13.680;2023-05-16T05:22:31;5.35;;;3.13;;
25637;SDS011;13496;51.040;13.680;2023-05-16T05:27:33;3.30;;;3.00;;
25637;SDS011;13496;51.040;13.680;2023-05-16T05:32:35;4.53;;;3.60;;
25637;SDS011;13496;51.040;13.680;2023-05-16T05:37:36;3.90;;;3.60;;
25637;SDS011;13496;51.040;13.680;2023-05-16T05:42:38;4.05;;;3.65;;
25637;SDS011;13496;51.040;13.680;2023-05-16T05:47:40;3.83;;;3.53;;
25637;SDS011;13496;51.040;13.680;2023-05-16T05:52:42;4.25;;;3.85;;
25637;SDS011;13496;51.040;13.680;2023-05-16T05:57:44;3.85;;;3.55;;
25637;SDS011;13496;51.040;13.680;2023-05-16T06:02:46;4.50;;;4.10;;
25637;SDS011;13496;51.040;13.680;2023-05-16T06:07:49;4.20;;;3.90;;
25637;SDS011;13496;51.040;13.680;2023-05-16T06:12:50;3.60;;;3.30;;
25637;SDS011;13496;51.040;13.680;2023-05-16T06:17:52;4.50;;;4.10;;
25637;SDS011;13496;51.040;13.680;2023-05-16T06:22:54;4.13;;;3.83;;
25637;SDS011;13496;51.040;13.680;2023-05-16T06:27:55;5.32;;;4.80;;
25637;SDS011;13496;51.040;13.680;2023-05-16T06:32:57;4.60;;;4.20;;
25637;SDS011;13496;51.040;13.680;2023-05-16T06:37:59;4.38;;;4.05;;
25637;SDS011;13496;51.040;13.680;2023-05-16T06:43:00;6.88;;;6.28;;
25637;SDS011;13496;51.040;13.680;2023-05-16T06:48:03;4.78;;;4.38;;
25637;SDS011;13496;51.040;13.680;2023-05-16T06:53:05;5.00;;;4.60;;
25637;SDS011;13496;51.040;13.680;2023-05-16T06:58:07;5.30;;;4.90;;
25637;SDS011;13496;51.040;13.680;2023-05-16T07:03:09;5.35;;;4.43;;
25637;SDS011;13496;51.040;13.680;2023-05-16T07:08:11;5.50;;;4.85;;
25637;SDS011;13496;51.040;13.680;2023-05-16T07:13:13;4.28;;;3.88;;
25637;SDS011;13496;51.040;13.680;2023-05-16T07:18:14;4.75;;;4.38;;
25637;SDS011;13496;51.040;13.680;2023-05-16T07:23:16;4.40;;;4.10;;
25637;SDS011;13496;51.040;13.680;2023-05-16T07:28:18;4.60;;;4.15;;
25637;SDS011;13496;51.040;13.680;2023-05-16T07:33:19;4.47;;;3.67;;
25637;SDS011;13496;51.040;13.680;2023-05-16T07:38:21;4.20;;;3.80;;
25637;SDS011;13496;51.040;13.680;2023-05-16T07:43:23;4.03;;;3.72;;
25637;SDS011;13496;51.040;13.680;2023-05-16T07:48:25;4.47;;;4.07;;
25637;SDS011;13496;51.040;13.680;2023-05-16T07:53:27;3.95;;;3.65;;
25637;SDS011;13496;51.040;13.680;2023-05-16T07:58:28;4.45;;;4.05;;
25637;SDS011;13496;51.040;13.680;2023-05-16T08:03:30;3.75;;;3.45;;
25637;SDS011;13496;51.040;13.680;2023-05-16T08:08:32;3.75;;;3.45;;
25637;SDS011;13496;51.040;13.680;2023-05-16T08:13:34;4.30;;;3.90;;
25637;SDS011;13496;51.040;13.680;2023-05-16T08:18:35;4.40;;;4.00;;
25637;SDS011;13496;51.040;13.680;2023-05-16T08:23:37;4.15;;;3.83;;
25637;SDS011;13496;51.040;13.680;2023-05-16T08:28:39;4.72;;;3.92;;
25637;SDS011;13496;51.040;13.680;2023-05-16T08:33:41;4.22;;;3.83;;
25637;SDS011;13496;51.040;13.680;2023-05-16T08:38:43;3.72;;;3.42;;
25637;SDS011;13496;51.040;13.680;2023-05-16T08:43:44;3.50;;;3.20;;
25637;SDS011;13496;51.040;13.680;2023-05-16T08:48:46;3.58;;;3.28;;
25637;SDS011;13496;51.040;13.680;2023-05-16T08:54:10;3.97;;;3.67;;
25637;SDS011;13496;51.040;13.680;2023-05-16T08:59:15;4.15;;;3.33;;
25637;SDS011;13496;51.040;13.680;2023-05-16T09:04:17;3.17;;;2.97;;
25637;SDS011;13496;51.040;13.680;2023-05-16T09:09:20;3.95;;;3.65;;
25637;SDS011;13496;51.040;13.680;2023-05-16T09:14:21;4.10;;;3.75;;
25637;SDS011;13496;51.040;13.680;2023-05-16T09:19:23;3.47;;;3.22;;
25637;SDS011;13496;51.040;13.680;2023-05-16T09:24:25;3.75;;;3.45;;
25637;SDS011;13496;51.040;13.680;2023-05-16T09:29:26;3.55;;;3.25;;
25637;SDS011;13496;51.040;13.680;2023-05-16T09:34:28;3.53;;;3.28;;
25637;SDS011;13496;51.040;13.680;2023-05-16T09:39:30;3.55;;;3.35;;
25637;SDS011;13496;51.040;13.680;2023-05-16T09:44:31;3.53;;;3.33;;
25637;SDS011;13496;51.040;13.680;2023-05-16T09:49:35;3.50;;;3.30;;
25637;SDS011;13496;51.040;13.680;2023-05-16T09:54:38;3.08;;;2.88;;
25637;SDS011;13496;51.040;13.680;2023-05-16T09:59:40;3.50;;;3.20;;
25637;SDS011;13496;51.040;13.680;2023-05-16T10:04:41;3.17;;;2.97;;
25637;SDS011;13496;51.040;13.680;2023-05-16T10:09:43;3.40;;;3.10;;
25637;SDS011;13496;51.040;13.680;2023-05-16T10:14:46;3.22;;;3.03;;
25637;SDS011;13496;51.040;13.680;2023-05-16T10:19:50;3.40;;;3.10;;
25637;SDS011;13496;51.040;13.680;2023-05-16T10:30:26;3.10;;;2.90;;
25637;SDS011;13496;51.040;13.680;2023-05-16T10:35:28;3.38;;;2.95;;
25637;SDS011;13496;51.040;13.680;2023-05-16T10:40:30;2.78;;;2.58;;
25637;SDS011;13496;51.040;13.680;2023-05-16T10:45:32;3.50;;;3.20;;
25637;SDS011;13496;51.040;13.680;2023-05-16T10:50:38;3.03;;;2.83;;
25637;SDS011;13496;51.040;13.680;2023-05-16T10:55:47;3.10;;;2.90;;
25637;SDS011;13496;51.040;13.680;2023-05-16T11:01:20;2.90;;;2.70;;
25637;SDS011;13496;51.040;13.680;2023-05-16T11:06:26;2.90;;;2.70;;
25637;SDS011;13496;51.040;13.680;2023-05-16T11:16:52;3.45;;;3.15;;
25637;SDS011;13496;51.040;13.680;2023-05-16T11:27:08;2.70;;;2.50;;
25637;SDS011;13496;51.040;13.680;2023-05-16T11:32:16;3.00;;;2.80;;
25637;SDS011;13496;51.040;13.680;2023-05-16T11:37:20;2.80;;;2.60;;
25637;SDS011;13496;51.040;13.680;2023-05-16T11:42:21;2.97;;;2.78;;
25637;SDS011;13496;51.040;13.680;2023-05-16T11:47:23;3.00;;;2.80;;
25637;SDS011;13496;51.040;13.680;2023-05-16T11:52:25;3.15;;;2.85;;
25637;SDS011;13496;51.040;13.680;2023-05-16T11:57:28;2.75;;;2.55;;
25637;SDS011;13496;51.040;13.680;2023-05-16T12:02:29;2.92;;;2.72;;
25637;SDS011;13496;51.040;13.680;2023-05-16T12:07:32;2.40;;;2.30;;
25637;SDS011;13496;51.040;13.680;2023-05-16T12:12:34;3.00;;;2.80;;
25637;SDS011;13496;51.040;13.680;2023-05-16T12:17:38;2.42;;;2.28;;
25637;SDS011;13496;51.040;13.680;2023-05-16T12:22:41;2.47;;;2.30;;
25637;SDS011;13496;51.040;13.680;2023-05-16T12:27:45;2.83;;;2.63;;
25637;SDS011;13496;51.040;13.680;2023-05-16T12:32:51;2.50;;;2.30;;
25637;SDS011;13496;51.040;13.680;2023-05-16T12:38:22;2.85;;;2.58;;
25637;SDS011;13496;51.040;13.680;2023-05-16T12:43:26;2.80;;;2.60;;
25637;SDS011;13496;51.040;13.680;2023-05-16T12:48:32;2.83;;;2.63;;
25637;SDS011;13496;51.040;13.680;2023-05-16T12:53:40;2.53;;;2.33;;
25637;SDS011;13496;51.040;13.680;2023-05-16T12:58:49;2.83;;;2.63;;
25637;SDS011;13496;51.040;13.680;2023-05-16T13:03:52;2.60;;;2.40;;
25637;SDS011;13496;51.040;13.680;2023-05-16T13:08:53;2.28;;;2.17;;
25637;SDS011;13496;51.040;13.680;2023-05-16T13:13:56;2.72;;;2.30;;
25637;SDS011;13496;51.040;13.680;2023-05-16T13:18:57;2.63;;;2.42;;
25637;SDS011;13496;51.040;13.680;2023-05-16T13:23:59;2.50;;;2.30;;
25637;SDS011;13496;51.040;13.680;2023-05-16T13:29:01;1.98;;;1.88;;
25637;SDS011;13496;51.040;13.680;2023-05-16T13:34:02;2.45;;;2.35;;
25637;SDS011;13496;51.040;13.680;2023-05-16T13:39:04;2.35;;;2.25;;
25637;SDS011;13496;51.040;13.680;2023-05-16T13:44:06;3.65;;;2.42;;
25637;SDS011;13496;51.040;13.680;2023-05-16T13:49:08;2.00;;;1.90;;
25637;SDS011;13496;51.040;13.680;2023-05-16T13:54:10;2.40;;;2.20;;
25637;SDS011;13496;51.040;13.680;2023-05-16T13:59:11;3.63;;;2.33;;
25637;SDS011;13496;51.040;13.680;2023-05-16T14:04:13;2.08;;;1.98;;
25637;SDS011;13496;51.040;13.680;2023-05-16T14:09:15;3.08;;;2.53;;
25637;SDS011;13496;51.040;13.680;2023-05-16T14:14:17;2.22;;;2.03;;
25637;SDS011;13496;51.040;13.680;2023-05-16T14:19:18;2.45;;;2.25;;
25637;SDS011;13496;51.040;13.680;2023-05-16T14:24:20;3.28;;;1.90;;
25637;SDS011;13496;51.040;13.680;2023-05-16T14:29:22;2.58;;;2.30;;
25637;SDS011;13496;51.040;13.680;2023-05-16T14:34:24;2.30;;;2.10;;
25637;SDS011;13496;51.040;13.680;2023-05-16T14:39:26;2.00;;;1.90;;
25637;SDS011;13496;51.040;13.680;2023-05-16T14:44:28;2.30;;;2.10;;
25637;SDS011;13496;51.040;13.680;2023-05-16T14:49:29;2.42;;;2.00;;
25637;SDS011;13496;51.040;13.680;2023-05-16T14:54:32;2.05;;;1.95;;
25637;SDS011;13496;51.040;13.680;2023-05-16T14:59:34;2.35;;;2.10;;
25637;SDS011;13496;51.040;13.680;2023-05-16T15:04:35;2.00;;;1.73;;
25637;SDS011;13496;51.040;13.680;2023-05-16T15:09:37;2.05;;;1.85;;
25637;SDS011;13496;51.040;13.680;2023-05-16T15:14:39;2.10;;;2.00;;
25637;SDS011;13496;51.040;13.680;2023-05-16T15:19:41;2.72;;;2.08;;
25637;SDS011;13496;51.040;13.680;2023-05-16T15:24:42;2.00;;;1.90;;
25637;SDS011;13496;51.040;13.680;2023-05-16T15:29:44;2.38;;;2.00;;
25637;SDS011;13496;51.040;13.680;2023-05-16T15:34:46;2.38;;;2.08;;
25637;SDS011;13496;51.040;13.680;2023-05-16T15:39:47;1.90;;;1.80;;
25637;SDS011;13496;51.040;13.680;2023-05-16T15:44:49;2.00;;;1.80;;
25637;SDS011;13496;51.040;13.680;2023-05-16T15:49:51;1.80;;;1.70;;
25637;SDS011;13496;51.040;13.680;2023-05-16T15:54:52;2.05;;;1.90;;
25637;SDS011;13496;51.040;13.680;2023-05-16T15:59:54;2.20;;;1.85;;
25637;SDS011;13496;51.040;13.680;2023-05-16T16:04:56;1.80;;;1.70;;
25637;SDS011;13496;51.040;13.680;2023-05-16T16:09:57;2.05;;;1.85;;
25637;SDS011;13496;51.040;13.680;2023-05-16T16:14:59;1.77;;;1.67;;
25637;SDS011;13496;51.040;13.680;2023-05-16T16:20:02;3.45;;;1.88;;
25637;SDS011;13496;51.040;13.680;2023-05-16T16:25:04;2.88;;;1.63;;
25637;SDS011;13496;51.040;13.680;2023-05-16T16:30:07;2.55;;;1.70;;
25637;SDS011;13496;51.040;13.680;2023-05-16T16:35:09;2.13;;;1.90;;
25637;SDS011;13496;51.040;13.680;2023-05-16T16:40:11;3.55;;;1.75;;
25637;SDS011;13496;51.040;13.680;2023-05-16T16:45:13;2.00;;;1.63;;
25637;SDS011;13496;51.040;13.680;2023-05-16T16:50:14;1.90;;;1.75;;
25637;SDS011;13496;51.040;13.680;2023-05-16T16:55:16;1.77;;;1.60;;
25637;SDS011;13496;51.040;13.680;2023-05-16T17:00:18;3.10;;;1.55;;
25637;SDS011;13496;51.040;13.680;2023-05-16T17:05:20;1.98;;;1.80;;
25637;SDS011;13496;51.040;13.680;2023-05-16T17:10:22;1.63;;;1.52;;
25637;SDS011;13496;51.040;13.680;2023-05-16T17:15:24;1.77;;;1.63;;
25637;SDS011;13496;51.040;13.680;2023-05-16T17:20:26;2.03;;;1.80;;
25637;SDS011;13496;51.040;13.680;2023-05-16T17:25:28;1.85;;;1.67;;
25637;SDS011;13496;51.040;13.680;2023-05-16T17:30:29;1.38;;;1.27;;
25637;SDS011;13496;51.040;13.680;2023-05-16T17:35:31;1.60;;;1.50;;
25637;SDS011;13496;51.040;13.680;2023-05-16T17:40:33;1.75;;;1.65;;
25637;SDS011;13496;51.040;13.680;2023-05-16T17:45:35;1.80;;;1.67;;
25637;SDS011;13496;51.040;13.680;2023-05-16T17:50:36;2.13;;;1.38;;
25637;SDS011;13496;51.040;13.680;2023-05-16T17:55:39;3.03;;;1.80;;
25637;SDS011;13496;51.040;13.680;2023-05-16T18:00:41;2.63;;;1.80;;
25637;SDS011;13496;51.040;13.680;2023-05-16T18:05:42;2.90;;;1.90;;
25637;SDS011;13496;51.040;13.680;2023-05-16T18:10:44;4.60;;;2.17;;
25637;SDS011;13496;51.040;13.680;2023-05-16T18:15:46;2.80;;;1.60;;
25637;SDS011;13496;51.040;13.680;2023-05-16T18:20:47;5.65;;;2.10;;
25637;SDS011;13496;51.040;13.680;2023-05-16T18:25:51;4.82;;;2.10;;
25637;SDS011;13496;51.040;13.680;2023-05-16T18:30:52;4.30;;;2.10;;
25637;SDS011;13496;51.040;13.680;2023-05-16T18:35:54;4.80;;;2.20;;
25637;SDS011;13496;51.040;13.680;2023-05-16T18:40:56;2.85;;;2.00;;
25637;SDS011;13496;51.040;13.680;2023-05-16T18:45:57;3.40;;;1.73;;
25637;SDS011;13496;51.040;13.680;2023-05-16T18:50:59;3.33;;;2.20;;
25637;SDS011;13496;51.040;13.680;2023-05-16T18:56:01;3.25;;;2.08;;
25637;SDS011;13496;51.040;13.680;2023-05-16T19:01:03;3.72;;;1.90;;
25637;SDS011;13496;51.040;13.680;2023-05-16T19:06:04;3.80;;;2.25;;
25637;SDS011;13496;51.040;13.680;2023-05-16T19:11:06;5.43;;;1.70;;
25637;SDS011;13496;51.040;13.680;2023-05-16T19:16:08;2.78;;;1.95;;
25637;SDS011;13496;51.040;13.680;2023-05-16T19:21:10;3.22;;;2.00;;
25637;SDS011;13496;51.040;13.680;2023-05-16T19:26:13;2.22;;;1.80;;
25637;SDS011;13496;51.040;13.680;2023-05-16T19:31:15;4.35;;;1.95;;
25637;SDS011;13496;51.040;13.680;2023-05-16T19:36:16;2.92;;;2.20;;
25637;SDS011;13496;51.040;13.680;2023-05-16T19:41:18;2.95;;;1.90;;
25637;SDS011;13496;51.040;13.680;2023-05-16T19:46:20;3.10;;;1.92;;
25637;SDS011;13496;51.040;13.680;2023-05-16T19:51:21;2.78;;;1.80;;
25637;SDS011;13496;51.040;13.680;2023-05-16T19:56:23;3.50;;;2.13;;
25637;SDS011;13496;51.040;13.680;2023-05-16T20:01:25;2.47;;;1.83;;
25637;SDS011;13496;51.040;13.680;2023-05-16T20:06:26;2.17;;;1.73;;
25637;SDS011;13496;51.040;13.680;2023-05-16T20:11:28;1.73;;;1.55;;
25637;SDS011;13496;51.040;13.680;2023-05-16T20:16:30;2.55;;;1.98;;
25637;SDS011;13496;51.040;13.680;2023-05-16T20:21:32;2.95;;;1.70;;
25637;SDS011;13496;51.040;13.680;2023-05-16T20:26:34;4.00;;;1.92;;
25637;SDS011;13496;51.040;13.680;2023-05-16T20:31:35;2.53;;;1.67;;
25637;SDS011;13496;51.040;13.680;2023-05-16T20:36:37;2.53;;;1.75;;
25637;SDS011;13496;51.040;13.680;2023-05-16T20:41:39;2.78;;;1.90;;
25637;SDS011;13496;51.040;13.680;2023-05-16T20:46:41;2.30;;;1.70;;
25637;SDS011;13496;51.040;13.680;2023-05-16T20:51:43;2.00;;;1.73;;
25637;SDS011;13496;51.040;13.680;2023-05-16T20:56:45;2.08;;;1.70;;
25637;SDS011;13496;51.040;13.680;2023-05-16T21:01:47;1.92;;;1.42;;
25637;SDS011;13496;51.040;13.680;2023-05-16T21:06:48;2.20;;;1.48;;
25637;SDS011;13496;51.040;13.680;2023-05-16T21:11:50;2.35;;;1.30;;
25637;SDS011;13496;51.040;13.680;2023-05-16T21:16:52;2.60;;;1.70;;
25637;SDS011;13496;51.040;13.680;2023-05-16T21:21:53;2.90;;;1.77;;
25637;SDS011;13496;51.040;13.680;2023-05-16T21:26:55;1.95;;;1.50;;
25637;SDS011;13496;51.040;13.680;2023-05-16T21:31:57;2.47;;;1.77;;
25637;SDS011;13496;51.040;13.680;2023-05-16T21:36:59;1.83;;;1.50;;
25637;SDS011;13496;51.040;13.680;2023-05-16T21:42:02;1.92;;;1.45;;
25637;SDS011;13496;51.040;13.680;2023-05-16T21:47:03;1.52;;;1.40;;
25637;SDS011;13496;51.040;13.680;2023-05-16T21:52:05;2.05;;;1.50;;
25637;SDS011;13496;51.040;13.680;2023-05-16T21:57:07;1.48;;;1.30;;
25637;SDS011;13496;51.040;13.680;2023-05-16T22:02:09;2.03;;;1.45;;
25637;SDS011;13496;51.040;13.680;2023-05-16T22:07:10;1.95;;;1.33;;
25637;SDS011;13496;51.040;13.680;2023-05-16T22:12:12;1.38;;;1.23;;
25637;SDS011;13496;51.040;13.680;2023-05-16T22:17:14;1.92;;;1.30;;
25637;SDS011;13496;51.040;13.680;2023-05-16T22:22:15;1.60;;;1.40;;
25637;SDS011;13496;51.040;13.680;2023-05-16T22:27:17;2.92;;;1.70;;
25637;SDS011;13496;51.040;13.680;2023-05-16T22:32:19;1.60;;;1.27;;
25637;SDS011;13496;51.040;13.680;2023-05-16T22:37:22;2.70;;;1.45;;
25637;SDS011;13496;51.040;13.680;2023-05-16T22:42:24;1.65;;;1.30;;
25637;SDS011;13496;51.040;13.680;2023-05-16T22:47:26;2.33;;;1.52;;
25637;SDS011;13496;51.040;13.680;2023-05-16T22:52:28;2.38;;;1.58;;
25637;SDS011;13496;51.040;13.680;2023-05-16T22:57:30;1.85;;;1.42;;
25637;SDS011;13496;51.040;13.680;2023-05-16T23:02:32;1.30;;;1.20;;
25637;SDS011;13496;51.040;13.680;2023-05-16T23:07:34;2.03;;;1.58;;
25637;SDS011;13496;51.040;13.680;2023-05-16T23:12:35;1.80;;;1.38;;
25637;SDS011;13496;51.040;13.680;2023-05-16T23:17:37;1.30;;;1.20;;
25637;SDS011;13496;51.040;13.680;2023-05-16T23:22:39;2.47;;;1.40;;
25637;SDS011;13496;51.040;13.680;2023-05-16T23:27:41;1.30;;;1.20;;
25637;SDS011;13496;51.040;13.680;2023-05-16T23:32:42;1.65;;;1.25;;
25637;SDS011;13496;51.040;13.680;2023-05-16T23:37:44;1.77;;;1.15;;
25637;SDS011;13496;51.040;13.680;2023-05-16T23:42:46;3.08;;;1.30;;
25637;SDS011;13496;51.040;13.680;2023-05-16T23:47:48;1.33;;;1.10;;
25637;SDS011;13496;51.040;13.680;2023-05-16T23:52:49;1.50;;;1.20;;
25637;SDS011;13496;51.040;13.680;2023-05-16T23:57:51;1.98;;;1.17;;
